createdAt,value
2022-11-07T00:00:02.275Z,45.79712227649633
2022-11-07T00:15:01.937Z,45.673688499000455
2022-11-07T00:30:01.676Z,46.219708745457005
2022-11-07T00:45:01.316Z,46.02325106224826
2022-11-07T01:00:01.979Z,46.18878675890643
2022-11-07T01:15:01.652Z,46.207343262864086
2022-11-07T01:30:01.336Z,46.03902465336569
2022-11-07T01:45:02.006Z,46.465623394582
2022-11-07T02:00:01.759Z,46.52895347048102
2022-11-07T02:15:01.407Z,46.49576017881892
2022-11-07T02:30:02.109Z,46.6669515456814
2022-11-07T02:45:01.817Z,46.401320519436304
2022-11-07T03:00:01.799Z,46.71423352465467
2022-11-07T03:15:01.527Z,46.441793018447605
2022-11-07T03:30:02.225Z,46.79959377712056
2022-11-07T03:45:01.814Z,46.750084855832085
2022-11-07T04:00:01.476Z,46.71102199541677
2022-11-07T04:15:02.111Z,47.125183554040554
2022-11-07T04:30:01.774Z,46.65534724774992
2022-11-07T04:45:01.421Z,46.604647080664165
2022-11-07T05:00:02.041Z,46.66750178578501
2022-11-07T05:15:01.726Z,47.20044401427508
2022-11-07T05:30:01.407Z,47.00330886896968
2022-11-07T05:45:02.082Z,47.049452506525625
2022-11-07T06:00:01.827Z,47.629103716805474
2022-11-07T06:15:01.538Z,46.81676658797831
2022-11-07T06:30:02.242Z,47.0759101139026
2022-11-07T06:45:01.901Z,46.95735367470122
2022-11-07T07:00:01.586Z,47.225619278578364
2022-11-07T07:15:02.236Z,47.07283107540368
2022-11-07T07:30:01.877Z,46.71018588968444
2022-11-07T07:45:01.509Z,46.85761278901027
2022-11-07T08:00:02.132Z,46.6193597285775
2022-11-07T08:15:01.806Z,45.671353117228215
2022-11-07T08:30:01.491Z,45.09742753754887
2022-11-07T08:45:02.122Z,44.41459896503778
2022-11-07T09:00:01.732Z,44.29042145044693
2022-11-07T09:15:01.351Z,43.949490717964615
2022-11-07T09:30:01.992Z,44.418379372006115
2022-11-07T09:45:01.652Z,44.43005778682755
2022-11-07T10:00:01.285Z,43.29444806843383
2022-11-07T10:15:01.892Z,38.97194227089638
2022-11-07T10:30:01.580Z,38.73275090245806
2022-11-07T10:45:01.262Z,40.38268590147167
2022-11-07T11:00:02.154Z,39.051337671045964
2022-11-07T11:15:01.847Z,40.72356362318036
2022-11-07T11:30:01.494Z,41.51367121056135
2022-11-07T11:45:02.088Z,41.68106287827931
2022-11-07T12:00:01.726Z,42.57266618128553
2022-11-07T12:15:01.862Z,42.46885385820924
2022-11-07T12:30:01.569Z,43.26114762579277
2022-11-07T12:45:02.293Z,44.81213527797821
2022-11-07T13:00:01.944Z,44.60653166679681
2022-11-07T13:15:01.606Z,45.28676452226069
2022-11-07T13:30:02.251Z,44.92716358754619
2022-11-07T13:45:01.900Z,44.910075185148415
2022-11-07T14:00:01.670Z,44.60772782682799
2022-11-07T14:15:01.412Z,45.276420846275236
2022-11-07T14:30:02.105Z,45.72801171631191
2022-11-07T14:45:01.787Z,45.89809615214556
2022-11-07T15:00:01.469Z,46.32467958913283
2022-11-07T15:15:02.167Z,46.26095968772411
2022-11-07T15:30:02.149Z,46.03281563864174
2022-11-07T15:45:01.917Z,45.69098142645176
2022-11-07T16:00:01.558Z,45.88423276237295
2022-11-07T16:15:02.248Z,46.04930314732668
2022-11-07T16:30:02.008Z,45.97470740816289
2022-11-07T16:45:01.750Z,45.89486471245604
2022-11-07T17:00:01.499Z,45.92957933926695
2022-11-07T17:15:02.159Z,46.209004887539
2022-11-07T17:30:04.623Z,46.26598683526697
2022-11-07T17:45:01.938Z,46.35105392005256
2022-11-07T18:00:01.589Z,46.36277572409984
2022-11-07T18:15:01.204Z,46.766894580436585
2022-11-07T18:30:02.079Z,48.43117294491899
2022-11-07T18:45:01.853Z,49.155874776029634
2022-11-07T19:00:01.786Z,48.46935749175435
2022-11-07T19:15:01.486Z,48.216419503369906
2022-11-07T19:30:02.274Z,47.93917369454051
2022-11-07T19:45:02.025Z,47.530329868110115
2022-11-07T20:00:01.662Z,47.24647254166659
2022-11-07T20:15:02.336Z,47.3722185573196
2022-11-07T20:30:02.057Z,47.361508208413504
2022-11-07T20:45:01.744Z,47.19690716042557
2022-11-07T21:00:02.424Z,47.22571457482932
2022-11-07T21:15:02.136Z,47.305333189606266
2022-11-07T21:30:01.854Z,47.22618223207461
2022-11-07T21:45:01.531Z,46.993033192156425
2022-11-07T22:00:02.167Z,47.02176320890124
2022-11-07T22:15:01.897Z,46.993405174447204
2022-11-07T22:30:01.626Z,47.67886022784662
2022-11-07T22:45:02.253Z,48.00056404527151
2022-11-07T23:00:19.537Z,47.82476258782827
2022-11-07T23:15:01.438Z,47.97883536718549
2022-11-07T23:30:02.108Z,48.54287748097812
2022-11-07T23:45:01.794Z,48.89561958928256
